Terminal Aerodrome Forecast
Issued by NWS

Home | Current Version | Previous Version | Text Only | Print | Product List | Glossary On
Versions: 1 2 3 4 5 6 7 8 9 10 11 12 13
000
FTUS45 KRIW 290500
TAFBPI
TAF
KBPI 290524Z 2906/3006 VRB06KT P6SM -SHRA SCT015 OVC030
     FM291600 VRB06KT P6SM VCSH SCT020 BKN050
     FM292000 VRB10G15KT P6SM VCTS SCT030CB BKN050
     FM300300 34007KT P6SM VCFG SCT050=

USA.gov is the U.S. government's official web portal to all federal, state and local government web resources and services.